Hood Island — C6LU4 — position and weather

sailwx.info

Track history (hours):
 
Tides and Currents Weather Stations Pressure Air Temp Water Temp Dewpoint Dewpoint Depression Visibility Wind Speed Wind Dir Waves Ship Positions

Hood Island

Last reported at 2018-Feb-19 12:57 UTC. Time now 2018-Feb-21 09:43 UTC.
Position N 35°43' W 024°36'.

Type: Cargo ship. MMSI: 308512000.

Date/timePositionNaut miles runAvg speedWind from/ knotsBaromVisibWave heightAir tempDewpointWater temp
2018-Feb-19 12:57N 35°43' W 024°36'918.6
2018-Feb-19 12:29N 35°49' W 024°29'918.7
2018-Feb-19 12:00N 35°56' W 024°22'918.7
2018-Feb-19 11:30N 36°03' W 024°14'918.7
2018-Feb-19 11:00N 36°10' W 024°07'918.6
2018-Feb-19 10:30N 36°17' W 023°59'918.7
2018-Feb-19 10:00N 36°24' W 023°52'918.5
2018-Feb-19 09:30N 36°31' W 023°44'918.5
2018-Feb-19 09:00N 36°38' W 023°37'918.7
2018-Feb-19 08:30N 36°46' W 023°29'  
2018-Feb-16 14:54N 49°50' W 003°49'817.9
2018-Feb-16 14:28N 49°52' W 003°37'918.4
2018-Feb-16 14:00N 49°54' W 003°25'918.9
2018-Feb-16 13:30N 49°56' W 003°10'919.0
2018-Feb-16 13:01N 49°58' W 002°56'918.9
2018-Feb-16 12:30N 50°01' W 002°42'4416.8
2018-Feb-16 09:52N 50°13' W 001°35'514.6
2018-Feb-16 09:30N 50°14' W 001°28'714.0
2018-Feb-16 09:00N 50°16' W 001°17'3213.4
2018-Feb-16 06:37N 50°24' W 000°28'112.1
2018-Feb-16 06:31N 50°25' W 000°26'612.6
2018-Feb-16 06:00N 50°26' W 000°17'713.3
2018-Feb-16 05:31N 50°28' W 000°07'713.7
2018-Feb-16 05:00N 50°30' E 000°03'714.0
2018-Feb-16 04:30N 50°32' E 000°14'714.1
2018-Feb-16 04:00N 50°34' E 000°25'713.8
2018-Feb-16 03:31N 50°36' E 000°35'713.5
2018-Feb-16 03:01N 50°40' E 000°44'713.1
2018-Feb-16 02:31N 50°43' E 000°52'612.5
2018-Feb-16 02:01N 50°47' E 001°01'611.9
2018-Feb-16 01:30N 50°51' E 001°08'511.0
2018-Feb-16 01:00N 50°54' E 001°15'610.4
2018-Feb-16 00:28N 50°57' E 001°22'510.5
2018-Feb-16 00:00N 51°01' E 001°27'510.5
2018-Feb-15 23:31N 51°05' E 001°33'611.2
2018-Feb-15 23:00N 51°09' E 001°39'612.3
2018-Feb-15 22:30N 51°13' E 001°45'713.5
2018-Feb-15 22:00N 51°19' E 001°51'714.1
2018-Feb-15 21:30N 51°25' E 001°57'611.4
2018-Feb-15 21:00N 51°24' E 002°06'612.8
2018-Feb-15 20:31N 51°21' E 002°15'713.9
2018-Feb-15 20:00N 51°22' E 002°26'714.2
2018-Feb-15 19:30N 51°22' E 002°37'613.1
2018-Feb-15 19:00N 51°22' E 002°48'917.5
2018-Feb-15 18:31N 51°24' E 003°01'918.4
2018-Feb-15 18:00N 51°25' E 003°16'1019.2
2018-Feb-15 17:30N 51°25' E 003°31'612.2
2018-Feb-15 17:00N 51°26' E 003°41'815.1
2018-Feb-15 16:31N 51°21' E 003°50'815.3
2018-Feb-15 16:00N 51°26' E 003°59'612.0
2018-Feb-15 15:30N 51°22' E 004°06'5 9.4
2018-Feb-15 15:00N 51°22' E 004°14'3 5.3
2018-Feb-15 14:31N 51°21' E 004°17'0 0.0
2018-Feb-15 14:00N 51°21' E 004°17'0 0.0
2018-Feb-15 13:31N 51°21' E 004°17'1 2.8
2018-Feb-15 13:01N 51°19' E 004°19'1 1.8
2018-Feb-15 12:22N 51°20' E 004°20'0 0.0
2018-Feb-15 11:58N 51°20' E 004°20'0 0.0
2018-Feb-15 11:28N 51°20' E 004°20'0 0.0
2018-Feb-15 10:55N 51°20' E 004°20'0 0.0
2018-Feb-15 10:19N 51°20' E 004°20'0 0.0
2018-Feb-15 09:58N 51°20' E 004°20'0 0.0
2018-Feb-15 09:28N 51°20' E 004°20'0 0.0
2018-Feb-15 08:55N 51°20' E 004°20'0 0.0
2018-Feb-15 08:25N 51°20' E 004°20'0 0.0
2018-Feb-15 07:55N 51°20' E 004°20'0 0.0
2018-Feb-15 07:22N 51°20' E 004°20'0 0.0
2018-Feb-15 06:58N 51°20' E 004°20'0 0.0
2018-Feb-15 06:25N 51°20' E 004°20'0 0.0
2018-Feb-15 05:52N 51°20' E 004°20'0 0.0
2018-Feb-15 05:25N 51°20' E 004°20'0 0.0
2018-Feb-15 04:55N 51°20' E 004°20'0 0.0
2018-Feb-15 04:28N 51°20' E 004°20'0 0.0
2018-Feb-15 03:58N 51°20' E 004°20'0 0.0
2018-Feb-15 03:28N 51°20' E 004°20'0 0.0
2018-Feb-15 02:58N 51°20' E 004°20'0 0.0
2018-Feb-15 02:28N 51°20' E 004°20'0 0.0
2018-Feb-15 01:55N 51°20' E 004°20'0 0.0
2018-Feb-15 01:28N 51°20' E 004°20'0 0.0
2018-Feb-15 00:55N 51°20' E 004°20'0 0.0
2018-Feb-15 00:25N 51°20' E 004°20'0 0.0
2018-Feb-14 23:58N 51°20' E 004°20'0 0.0
2018-Feb-14 23:28N 51°20' E 004°20'0 0.0
2018-Feb-14 22:58N 51°20' E 004°20'0 0.0
2018-Feb-14 22:28N 51°20' E 004°20'0 0.0
2018-Feb-14 21:58N 51°20' E 004°20'0 0.0
2018-Feb-14 21:28N 51°20' E 004°20'0 0.0
2018-Feb-14 20:58N 51°20' E 004°20'0 0.0
2018-Feb-14 20:25N 51°20' E 004°20'0 0.0
2018-Feb-14 19:58N 51°20' E 004°20'0 0.0
2018-Feb-14 19:25N 51°20' E 004°20'0 0.0
2018-Feb-14 18:58N 51°20' E 004°20'0 0.0
2018-Feb-14 18:25N 51°20' E 004°20'0 0.0
2018-Feb-14 17:55N 51°20' E 004°20'0 0.0
2018-Feb-14 17:22N 51°20' E 004°20'0 0.0
2018-Feb-14 16:58N 51°20' E 004°20'0 0.0
2018-Feb-14 16:28N 51°20' E 004°20'0 0.0
2018-Feb-14 15:55N 51°20' E 004°20'0 0.0
2018-Feb-14 15:25N 51°20' E 004°20'0 0.0
2018-Feb-14 14:58N 51°20' E 004°20'0 0.0
2018-Feb-14 14:28N 51°20' E 004°20'0 0.0
2018-Feb-14 13:52N 51°20' E 004°20'0 0.0
2018-Feb-14 13:28N 51°20' E 004°20'0 0.0
2018-Feb-14 12:58N 51°20' E 004°20'0 0.0
2018-Feb-14 12:19N 51°20' E 004°20'0 0.0
2018-Feb-14 11:58N 51°20' E 004°20'0 0.0
2018-Feb-14 11:28N 51°20' E 004°20'0 0.0
2018-Feb-14 11:01N 51°20' E 004°20'0 0.0
2018-Feb-14 10:31N 51°20' E 004°20'0 0.0
2018-Feb-14 10:01N 51°20' E 004°20'0 0.0
2018-Feb-14 09:31N 51°20' E 004°20'0 0.0
2018-Feb-14 08:54N 51°20' E 004°20'0 0.0
2018-Feb-14 08:30N 51°20' E 004°20'0 0.0
2018-Feb-14 08:00N 51°20' E 004°20'0 0.0
2018-Feb-14 07:30N 51°20' E 004°20'0 0.0
2018-Feb-14 06:57N 51°20' E 004°20'0 0.0
2018-Feb-14 06:27N 51°20' E 004°20'0 0.0
2018-Feb-14 05:57N 51°20' E 004°20'0 0.0
2018-Feb-14 05:27N 51°20' E 004°20'0 0.0
2018-Feb-14 05:00N 51°20' E 004°20'0 0.0
2018-Feb-14 04:30N 51°20' E 004°20'0 0.0
2018-Feb-14 04:00N 51°20' E 004°20'0 0.0
2018-Feb-14 03:30N 51°20' E 004°20'0 0.0
2018-Feb-14 03:00N 51°20' E 004°20'0 0.0
2018-Feb-14 02:30N 51°20' E 004°20'0 0.0
2018-Feb-14 01:54N 51°20' E 004°20'0 0.0
2018-Feb-14 01:30N 51°20' E 004°20'0 0.0
2018-Feb-14 00:57N 51°20' E 004°20'0 0.0
2018-Feb-14 00:30N 51°20' E 004°20'0 0.0
2018-Feb-14 00:00N 51°20' E 004°20'0 0.0
2018-Feb-13 23:21N 51°20' E 004°20'0 0.0
2018-Feb-13 23:00N 51°20' E 004°20'0 0.0
2018-Feb-13 22:24N 51°20' E 004°20'0 0.0
2018-Feb-13 22:00N 51°20' E 004°20'0 0.0
2018-Feb-13 21:30N 51°20' E 004°20'0 0.0
2018-Feb-13 20:54N 51°20' E 004°20'0 0.0
2018-Feb-13 20:24N 51°20' E 004°20'0 0.0
2018-Feb-13 19:42N 51°20' E 004°20'0 0.0
2018-Feb-13 19:30N 51°20' E 004°20'0 0.0
2018-Feb-13 19:00N 51°20' E 004°20'0 0.0
2018-Feb-13 18:30N 51°20' E 004°20'0 0.0
2018-Feb-13 18:00N 51°20' E 004°20'0 0.0
2018-Feb-13 17:30N 51°20' E 004°20'0 0.0
2018-Feb-13 17:00N 51°20' E 004°20'0 0.0
2018-Feb-13 16:30N 51°20' E 004°20'0 0.0
2018-Feb-13 16:00N 51°20' E 004°20'0 0.0
2018-Feb-13 15:30N 51°20' E 004°20'0 0.0
2018-Feb-13 15:00N 51°20' E 004°20'0 0.0
2018-Feb-13 14:27N 51°20' E 004°20'0 0.0
2018-Feb-13 13:57N 51°20' E 004°20'0 0.0
2018-Feb-13 13:30N 51°20' E 004°20'0 0.0
2018-Feb-13 12:51N 51°20' E 004°20'0 0.0
2018-Feb-13 12:30N 51°20' E 004°20'0 0.0
2018-Feb-13 12:00N 51°20' E 004°20'0 0.0
2018-Feb-13 11:30N 51°20' E 004°20'0 0.0
2018-Feb-13 11:00N 51°20' E 004°20'0 0.0
2018-Feb-13 10:30N 51°20' E 004°20'0 0.0
2018-Feb-13 10:00N 51°20' E 004°20'0 0.0
2018-Feb-13 09:30N 51°20' E 004°20'0 0.0
2018-Feb-13 09:00N 51°20' E 004°20'0 0.0
2018-Feb-13 08:30N 51°20' E 004°20'0 0.0
2018-Feb-13 08:00N 51°20' E 004°20'0 0.0
2018-Feb-13 07:27N 51°20' E 004°20'0 0.0
2018-Feb-13 06:57N 51°20' E 004°20'0 0.0
2018-Feb-13 06:27N 51°20' E 004°20'0 0.0
2018-Feb-13 06:00N 51°20' E 004°20'0 0.0
2018-Feb-13 05:27N 51°20' E 004°20'0 0.0
2018-Feb-13 04:54N 51°20' E 004°20'0 0.0
2018-Feb-13 04:30N 51°20' E 004°20'0 0.0
2018-Feb-13 03:54N 51°20' E 004°20'0 0.0
2018-Feb-13 03:30N 51°20' E 004°20'0 0.0
2018-Feb-13 03:00N 51°20' E 004°20'0 0.0
2018-Feb-13 02:27N 51°20' E 004°20'0 0.0
2018-Feb-13 01:57N 51°20' E 004°20'0 0.0
2018-Feb-13 01:30N 51°20' E 004°20'0 0.0
2018-Feb-13 01:00N 51°20' E 004°20'0 0.0
2018-Feb-13 00:30N 51°20' E 004°20'0 0.0
2018-Feb-12 23:59N 51°20' E 004°20'0 0.0
2018-Feb-12 23:26N 51°20' E 004°20'0 0.0
2018-Feb-12 22:59N 51°20' E 004°20'0 0.0
2018-Feb-12 22:29N 51°20' E 004°20'0 0.0
2018-Feb-12 21:59N 51°20' E 004°20'0 0.0
2018-Feb-12 21:29N 51°20' E 004°20'0 0.0
2018-Feb-12 20:59N 51°20' E 004°20'0 0.0
2018-Feb-12 20:29N 51°20' E 004°20'0 0.0
2018-Feb-12 19:56N 51°20' E 004°20'0 0.0
2018-Feb-12 19:26N 51°20' E 004°20'0 0.0
2018-Feb-12 18:59N 51°20' E 004°20'0 0.0
2018-Feb-12 18:29N 51°20' E 004°20'0 0.0
2018-Feb-12 17:59N 51°20' E 004°20'0 0.0
2018-Feb-12 17:29N 51°20' E 004°20'0 0.0
2018-Feb-12 16:56N 51°20' E 004°20'0 0.0
2018-Feb-12 16:29N 51°20' E 004°20'0 0.0
2018-Feb-12 15:59N 51°20' E 004°20'0 0.0
2018-Feb-12 15:17N 51°20' E 004°20'0 0.0
2018-Feb-12 14:59N 51°20' E 004°20'0 0.0
2018-Feb-12 14:26N 51°20' E 004°20'0 0.0
2018-Feb-12 13:59N 51°20' E 004°20'0 0.0
2018-Feb-12 13:26N 51°20' E 004°20'0 0.0
2018-Feb-12 12:56N 51°20' E 004°20'0 0.0
2018-Feb-12 12:29N 51°20' E 004°20'0 0.0
2018-Feb-12 11:59N 51°20' E 004°20'0 0.0
2018-Feb-12 11:29N 51°20' E 004°20'0 0.0
2018-Feb-12 10:59N 51°20' E 004°20'0 0.0
2018-Feb-12 10:29N 51°20' E 004°20'0 0.0
2018-Feb-12 09:59N 51°20' E 004°20'0 0.0
2018-Feb-12 09:29N 51°20' E 004°20'0 0.0
2018-Feb-12 08:59N 51°20' E 004°20'0 0.0
2018-Feb-12 07:59N 51°20' E 004°20'0 0.0
2018-Feb-12 07:29N 51°20' E 004°20'0 0.0
2018-Feb-12 06:56N 51°20' E 004°20'0 0.0
2018-Feb-12 06:29N 51°20' E 004°20'0 0.0
2018-Feb-12 05:56N 51°20' E 004°20'0 0.0
2018-Feb-12 05:29N 51°20' E 004°20'0 0.0
2018-Feb-12 04:59N 51°20' E 004°20'0 0.0
2018-Feb-12 04:29N 51°20' E 004°20'0 0.0
2018-Feb-12 03:59N 51°20' E 004°20'0 0.0
2018-Feb-12 03:29N 51°20' E 004°20'0 0.0
2018-Feb-12 02:59N 51°20' E 004°20'0 0.0
2018-Feb-12 02:29N 51°20' E 004°20'0 0.0
2018-Feb-12 01:56N 51°20' E 004°20'0 0.0
2018-Feb-12 01:23N 51°20' E 004°20'0 0.0
2018-Feb-12 00:59N 51°20' E 004°20'0 0.0
2018-Feb-12 00:29N 51°20' E 004°20'0 0.0
2018-Feb-11 23:56N 51°20' E 004°20'0 0.0
2018-Feb-11 23:29N 51°20' E 004°20'0 0.0
2018-Feb-11 22:59N 51°20' E 004°20'0 0.0
2018-Feb-11 22:29N 51°20' E 004°20'0 0.0
2018-Feb-11 21:56N 51°20' E 004°20'0 0.0
2018-Feb-11 21:29N 51°20' E 004°20'0 0.0
2018-Feb-11 20:59N 51°20' E 004°20'0 0.0
2018-Feb-11 20:29N 51°20' E 004°20'0 0.0
2018-Feb-11 19:59N 51°20' E 004°20'0 0.0
2018-Feb-11 19:26N 51°20' E 004°20'0 0.0
2018-Feb-11 18:56N 51°20' E 004°20'0 0.0
2018-Feb-11 18:26N 51°20' E 004°20'0 0.0
2018-Feb-11 17:59N 51°20' E 004°20'0 0.0
2018-Feb-11 17:29N 51°20' E 004°20'0 0.0
2018-Feb-11 16:53N 51°20' E 004°20'0 0.0
2018-Feb-11 16:29N 51°20' E 004°20'0 0.0
2018-Feb-11 15:59N 51°20' E 004°20'0 0.0
2018-Feb-11 15:26N 51°20' E 004°20'0 0.0
2018-Feb-11 14:59N 51°20' E 004°20'0 0.0
2018-Feb-11 14:29N 51°20' E 004°20'0 0.0
2018-Feb-11 13:59N 51°20' E 004°20'0 0.0
2018-Feb-11 13:29N 51°20' E 004°20'0 0.0
2018-Feb-11 12:58N 51°20' E 004°20'0 0.0
2018-Feb-11 12:28N 51°20' E 004°20'0 0.0
2018-Feb-11 11:58N 51°20' E 004°20'0 0.0
2018-Feb-11 11:28N 51°20' E 004°20'0 0.0
2018-Feb-11 10:58N 51°20' E 004°20'0 0.0
2018-Feb-11 10:25N 51°20' E 004°20'0 0.0
2018-Feb-11 09:58N 51°20' E 004°20'0 0.0
2018-Feb-11 09:28N 51°20' E 004°20'0 0.0
2018-Feb-11 08:58N 51°20' E 004°20'0 0.0
2018-Feb-11 08:19N 51°20' E 004°20'0 0.0
2018-Feb-11 07:58N 51°20' E 004°20'0 0.0
2018-Feb-11 07:28N 51°20' E 004°20'0 0.0
2018-Feb-11 06:49N 51°20' E 004°20'0 0.0
2018-Feb-11 06:28N 51°20' E 004°20'0 0.0
2018-Feb-11 05:52N 51°20' E 004°20'0 0.0
2018-Feb-11 05:28N 51°20' E 004°20'0 0.0
2018-Feb-11 04:58N 51°20' E 004°20'0 0.0
2018-Feb-11 04:25N 51°20' E 004°20'0 0.0
2018-Feb-11 03:58N 51°20' E 004°20'0 0.0
2018-Feb-11 03:19N 51°20' E 004°20'0 0.0
2018-Feb-11 02:49N 51°20' E 004°20'0 0.0
2018-Feb-11 02:19N 51°20' E 004°20'0 0.0
2018-Feb-11 01:52N 51°20' E 004°20'0 0.0
2018-Feb-11 01:25N 51°20' E 004°20'0 0.0
2018-Feb-11 00:58N 51°20' E 004°20'0 0.0
2018-Feb-11 00:28N 51°20' E 004°20'0 0.0
2018-Feb-10 23:52N 51°20' E 004°20'0 0.0
2018-Feb-10 23:28N 51°20' E 004°20'0 0.0
2018-Feb-10 22:52N 51°20' E 004°20'0 0.0
2018-Feb-10 22:28N 51°20' E 004°20'0 0.0
2018-Feb-10 21:40N 51°20' E 004°20'0 0.0
2018-Feb-10 21:28N 51°20' E 004°20'0 0.0
2018-Feb-10 20:58N 51°20' E 004°20'0 0.0
2018-Feb-10 20:28N 51°20' E 004°20'0 0.0
2018-Feb-10 19:58N 51°20' E 004°20'0 0.0
2018-Feb-10 19:28N 51°20' E 004°20'0 0.0
2018-Feb-10 18:55N 51°20' E 004°20'0 0.0
2018-Feb-10 18:28N 51°20' E 004°20'0 0.0
2018-Feb-10 17:55N 51°20' E 004°20'0 0.0
2018-Feb-10 17:28N 51°20' E 004°20'0 0.0
2018-Feb-10 16:58N 51°20' E 004°20'0 0.0
2018-Feb-10 16:28N 51°20' E 004°20'0 0.0
2018-Feb-10 15:58N 51°20' E 004°20'0 0.0
2018-Feb-10 15:25N 51°20' E 004°20'0 0.0
2018-Feb-10 14:52N 51°20' E 004°20'0 0.0
2018-Feb-10 14:22N 51°20' E 004°20'0 0.0
2018-Feb-10 13:55N 51°20' E 004°20'0 0.0
2018-Feb-10 13:28N 51°20' E 004°20'0 0.0
2018-Feb-10 12:58N 51°20' E 004°20'0 0.0
2018-Feb-10 12:28N 51°20' E 004°20'0 0.0
2018-Feb-10 11:55N 51°20' E 004°20'0 0.0
2018-Feb-10 11:28N 51°20' E 004°20'0 0.0
2018-Feb-10 10:58N 51°20' E 004°20'0 0.0
2018-Feb-10 10:28N 51°20' E 004°20'0 0.0
2018-Feb-10 09:58N 51°20' E 004°20'0 0.0
2018-Feb-10 09:28N 51°20' E 004°20'0 0.0
2018-Feb-10 08:58N 51°20' E 004°20'0 0.0
2018-Feb-10 08:28N 51°20' E 004°20'0 0.0
2018-Feb-10 07:58N 51°20' E 004°20'0 0.0
2018-Feb-10 07:28N 51°20' E 004°20'0 0.0
2018-Feb-10 06:58N 51°20' E 004°20'0 0.0
2018-Feb-10 06:19N 51°20' E 004°20'0 0.0
2018-Feb-10 05:58N 51°20' E 004°20'0 0.0
2018-Feb-10 05:28N 51°20' E 004°20'0 0.0
2018-Feb-10 04:58N 51°20' E 004°20'0 0.0
2018-Feb-10 04:31N 51°20' E 004°20'0 0.0
2018-Feb-10 04:01N 51°20' E 004°20'0 0.0
2018-Feb-10 03:18N 51°20' E 004°20'0 0.0
2018-Feb-10 02:57N 51°20' E 004°20'0 0.0
2018-Feb-10 02:30N 51°20' E 004°20'0 0.0
2018-Feb-10 02:00N 51°20' E 004°20'0 0.0
2018-Feb-10 01:27N 51°20' E 004°20'0 0.0
2018-Feb-10 00:57N 51°20' E 004°20'0 0.0
2018-Feb-10 00:27N 51°20' E 004°20'0 0.0
2018-Feb-10 00:00N 51°20' E 004°20'0 0.0
2018-Feb-09 23:27N 51°20' E 004°20'0 0.0
2018-Feb-09 23:00N 51°20' E 004°20'0 0.0
2018-Feb-09 22:45N 51°20' E 004°20'  
Track history (hours):
 
Tides and Currents Weather Stations Pressure Air Temp Water Temp Dewpoint Dewpoint Depression Visibility Wind Speed Wind Dir Waves Ship Positions

Hood Island

Last reported at 2018-Feb-19 12:57 UTC. Time now 2018-Feb-21 09:43 UTC.
Position N 35°43' W 024°36'.

Type: Cargo ship. MMSI: 308512000.

Date/timePositionNaut miles runAvg speedWind from/ knotsBaromVisibWave heightAir tempDewpointWater temp
2018-Feb-19 12:57N 35°43' W 024°36'918.6
2018-Feb-19 12:29N 35°49' W 024°29'918.7
2018-Feb-19 12:00N 35°56' W 024°22'918.7
2018-Feb-19 11:30N 36°03' W 024°14'918.7
2018-Feb-19 11:00N 36°10' W 024°07'918.6
2018-Feb-19 10:30N 36°17' W 023°59'918.7
2018-Feb-19 10:00N 36°24' W 023°52'918.5
2018-Feb-19 09:30N 36°31' W 023°44'918.5
2018-Feb-19 09:00N 36°38' W 023°37'918.7
2018-Feb-19 08:30N 36°46' W 023°29'  
2018-Feb-16 14:54N 49°50' W 003°49'817.9
2018-Feb-16 14:28N 49°52' W 003°37'918.4
2018-Feb-16 14:00N 49°54' W 003°25'918.9
2018-Feb-16 13:30N 49°56' W 003°10'919.0
2018-Feb-16 13:01N 49°58' W 002°56'918.9
2018-Feb-16 12:30N 50°01' W 002°42'4416.8
2018-Feb-16 09:52N 50°13' W 001°35'514.6
2018-Feb-16 09:30N 50°14' W 001°28'714.0
2018-Feb-16 09:00N 50°16' W 001°17'3213.4
2018-Feb-16 06:37N 50°24' W 000°28'112.1
2018-Feb-16 06:31N 50°25' W 000°26'612.6
2018-Feb-16 06:00N 50°26' W 000°17'713.3
2018-Feb-16 05:31N 50°28' W 000°07'713.7
2018-Feb-16 05:00N 50°30' E 000°03'714.0
2018-Feb-16 04:30N 50°32' E 000°14'714.1
2018-Feb-16 04:00N 50°34' E 000°25'713.8
2018-Feb-16 03:31N 50°36' E 000°35'713.5
2018-Feb-16 03:01N 50°40' E 000°44'713.1
2018-Feb-16 02:31N 50°43' E 000°52'612.5
2018-Feb-16 02:01N 50°47' E 001°01'611.9
2018-Feb-16 01:30N 50°51' E 001°08'511.0
2018-Feb-16 01:00N 50°54' E 001°15'610.4
2018-Feb-16 00:28N 50°57' E 001°22'510.5
2018-Feb-16 00:00N 51°01' E 001°27'510.5
2018-Feb-15 23:31N 51°05' E 001°33'611.2
2018-Feb-15 23:00N 51°09' E 001°39'612.3
2018-Feb-15 22:30N 51°13' E 001°45'713.5
2018-Feb-15 22:00N 51°19' E 001°51'714.1
2018-Feb-15 21:30N 51°25' E 001°57'611.4
2018-Feb-15 21:00N 51°24' E 002°06'612.8
2018-Feb-15 20:31N 51°21' E 002°15'713.9
2018-Feb-15 20:00N 51°22' E 002°26'714.2
2018-Feb-15 19:30N 51°22' E 002°37'613.1
2018-Feb-15 19:00N 51°22' E 002°48'917.5
2018-Feb-15 18:31N 51°24' E 003°01'918.4
2018-Feb-15 18:00N 51°25' E 003°16'1019.2
2018-Feb-15 17:30N 51°25' E 003°31'612.2
2018-Feb-15 17:00N 51°26' E 003°41'815.1
2018-Feb-15 16:31N 51°21' E 003°50'815.3
2018-Feb-15 16:00N 51°26' E 003°59'612.0
2018-Feb-15 15:30N 51°22' E 004°06'5 9.4
2018-Feb-15 15:00N 51°22' E 004°14'3 5.3
2018-Feb-15 14:31N 51°21' E 004°17'0 0.0
2018-Feb-15 14:00N 51°21' E 004°17'0 0.0
2018-Feb-15 13:31N 51°21' E 004°17'1 2.8
2018-Feb-15 13:01N 51°19' E 004°19'1 1.8
2018-Feb-15 12:22N 51°20' E 004°20'0 0.0
2018-Feb-15 11:58N 51°20' E 004°20'0 0.0
2018-Feb-15 11:28N 51°20' E 004°20'0 0.0
2018-Feb-15 10:55N 51°20' E 004°20'0 0.0
2018-Feb-15 10:19N 51°20' E 004°20'0 0.0
2018-Feb-15 09:58N 51°20' E 004°20'0 0.0
2018-Feb-15 09:28N 51°20' E 004°20'0 0.0
2018-Feb-15 08:55N 51°20' E 004°20'0 0.0
2018-Feb-15 08:25N 51°20' E 004°20'0 0.0
2018-Feb-15 07:55N 51°20' E 004°20'0 0.0
2018-Feb-15 07:22N 51°20' E 004°20'0 0.0
2018-Feb-15 06:58N 51°20' E 004°20'0 0.0
2018-Feb-15 06:25N 51°20' E 004°20'0 0.0
2018-Feb-15 05:52N 51°20' E 004°20'0 0.0
2018-Feb-15 05:25N 51°20' E 004°20'0 0.0
2018-Feb-15 04:55N 51°20' E 004°20'0 0.0
2018-Feb-15 04:28N 51°20' E 004°20'0 0.0
2018-Feb-15 03:58N 51°20' E 004°20'0 0.0
2018-Feb-15 03:28N 51°20' E 004°20'0 0.0
2018-Feb-15 02:58N 51°20' E 004°20'0 0.0
2018-Feb-15 02:28N 51°20' E 004°20'0 0.0
2018-Feb-15 01:55N 51°20' E 004°20'0 0.0
2018-Feb-15 01:28N 51°20' E 004°20'0 0.0
2018-Feb-15 00:55N 51°20' E 004°20'0 0.0
2018-Feb-15 00:25N 51°20' E 004°20'0 0.0
2018-Feb-14 23:58N 51°20' E 004°20'0 0.0
2018-Feb-14 23:28N 51°20' E 004°20'0 0.0
2018-Feb-14 22:58N 51°20' E 004°20'0 0.0
2018-Feb-14 22:28N 51°20' E 004°20'0 0.0
2018-Feb-14 21:58N 51°20' E 004°20'0 0.0
2018-Feb-14 21:28N 51°20' E 004°20'0 0.0
2018-Feb-14 20:58N 51°20' E 004°20'0 0.0
2018-Feb-14 20:25N 51°20' E 004°20'0 0.0
2018-Feb-14 19:58N 51°20' E 004°20'0 0.0
2018-Feb-14 19:25N 51°20' E 004°20'0 0.0
2018-Feb-14 18:58N 51°20' E 004°20'0 0.0
2018-Feb-14 18:25N 51°20' E 004°20'0 0.0
2018-Feb-14 17:55N 51°20' E 004°20'0 0.0
2018-Feb-14 17:22N 51°20' E 004°20'0 0.0
2018-Feb-14 16:58N 51°20' E 004°20'0 0.0
2018-Feb-14 16:28N 51°20' E 004°20'0 0.0
2018-Feb-14 15:55N 51°20' E 004°20'0 0.0
2018-Feb-14 15:25N 51°20' E 004°20'0 0.0
2018-Feb-14 14:58N 51°20' E 004°20'0 0.0
2018-Feb-14 14:28N 51°20' E 004°20'0 0.0
2018-Feb-14 13:52N 51°20' E 004°20'0 0.0
2018-Feb-14 13:28N 51°20' E 004°20'0 0.0
2018-Feb-14 12:58N 51°20' E 004°20'0 0.0
2018-Feb-14 12:19N 51°20' E 004°20'0 0.0
2018-Feb-14 11:58N 51°20' E 004°20'0 0.0
2018-Feb-14 11:28N 51°20' E 004°20'0 0.0
2018-Feb-14 11:01N 51°20' E 004°20'0 0.0
2018-Feb-14 10:31N 51°20' E 004°20'0 0.0
2018-Feb-14 10:01N 51°20' E 004°20'0 0.0
2018-Feb-14 09:31N 51°20' E 004°20'0 0.0
2018-Feb-14 08:54N 51°20' E 004°20'0 0.0
2018-Feb-14 08:30N 51°20' E 004°20'0 0.0
2018-Feb-14 08:00N 51°20' E 004°20'0 0.0
2018-Feb-14 07:30N 51°20' E 004°20'0 0.0
2018-Feb-14 06:57N 51°20' E 004°20'0 0.0
2018-Feb-14 06:27N 51°20' E 004°20'0 0.0
2018-Feb-14 05:57N 51°20' E 004°20'0 0.0
2018-Feb-14 05:27N 51°20' E 004°20'0 0.0
2018-Feb-14 05:00N 51°20' E 004°20'0 0.0
2018-Feb-14 04:30N 51°20' E 004°20'0 0.0
2018-Feb-14 04:00N 51°20' E 004°20'0 0.0
2018-Feb-14 03:30N 51°20' E 004°20'0 0.0
2018-Feb-14 03:00N 51°20' E 004°20'0 0.0
2018-Feb-14 02:30N 51°20' E 004°20'0 0.0
2018-Feb-14 01:54N 51°20' E 004°20'0 0.0
2018-Feb-14 01:30N 51°20' E 004°20'0 0.0
2018-Feb-14 00:57N 51°20' E 004°20'0 0.0
2018-Feb-14 00:30N 51°20' E 004°20'0 0.0
2018-Feb-14 00:00N 51°20' E 004°20'0 0.0
2018-Feb-13 23:21N 51°20' E 004°20'0 0.0
2018-Feb-13 23:00N 51°20' E 004°20'0 0.0
2018-Feb-13 22:24N 51°20' E 004°20'0 0.0
2018-Feb-13 22:00N 51°20' E 004°20'0 0.0
2018-Feb-13 21:30N 51°20' E 004°20'0 0.0
2018-Feb-13 20:54N 51°20' E 004°20'0 0.0
2018-Feb-13 20:24N 51°20' E 004°20'0 0.0
2018-Feb-13 19:42N 51°20' E 004°20'0 0.0
2018-Feb-13 19:30N 51°20' E 004°20'0 0.0
2018-Feb-13 19:00N 51°20' E 004°20'0 0.0
2018-Feb-13 18:30N 51°20' E 004°20'0 0.0
2018-Feb-13 18:00N 51°20' E 004°20'0 0.0
2018-Feb-13 17:30N 51°20' E 004°20'0 0.0
2018-Feb-13 17:00N 51°20' E 004°20'0 0.0
2018-Feb-13 16:30N 51°20' E 004°20'0 0.0
2018-Feb-13 16:00N 51°20' E 004°20'0 0.0
2018-Feb-13 15:30N 51°20' E 004°20'0 0.0
2018-Feb-13 15:00N 51°20' E 004°20'0 0.0
2018-Feb-13 14:27N 51°20' E 004°20'0 0.0
2018-Feb-13 13:57N 51°20' E 004°20'0 0.0
2018-Feb-13 13:30N 51°20' E 004°20'0 0.0
2018-Feb-13 12:51N 51°20' E 004°20'0 0.0
2018-Feb-13 12:30N 51°20' E 004°20'0 0.0
2018-Feb-13 12:00N 51°20' E 004°20'0 0.0
2018-Feb-13 11:30N 51°20' E 004°20'0 0.0
2018-Feb-13 11:00N 51°20' E 004°20'0 0.0
2018-Feb-13 10:30N 51°20' E 004°20'0 0.0
2018-Feb-13 10:00N 51°20' E 004°20'0 0.0
2018-Feb-13 09:30N 51°20' E 004°20'0 0.0
2018-Feb-13 09:00N 51°20' E 004°20'0 0.0
2018-Feb-13 08:30N 51°20' E 004°20'0 0.0
2018-Feb-13 08:00N 51°20' E 004°20'0 0.0
2018-Feb-13 07:27N 51°20' E 004°20'0 0.0
2018-Feb-13 06:57N 51°20' E 004°20'0 0.0
2018-Feb-13 06:27N 51°20' E 004°20'0 0.0
2018-Feb-13 06:00N 51°20' E 004°20'0 0.0
2018-Feb-13 05:27N 51°20' E 004°20'0 0.0
2018-Feb-13 04:54N 51°20' E 004°20'0 0.0
2018-Feb-13 04:30N 51°20' E 004°20'0 0.0
2018-Feb-13 03:54N 51°20' E 004°20'0 0.0
2018-Feb-13 03:30N 51°20' E 004°20'0 0.0
2018-Feb-13 03:00N 51°20' E 004°20'0 0.0
2018-Feb-13 02:27N 51°20' E 004°20'0 0.0
2018-Feb-13 01:57N 51°20' E 004°20'0 0.0
2018-Feb-13 01:30N 51°20' E 004°20'0 0.0
2018-Feb-13 01:00N 51°20' E 004°20'0 0.0
2018-Feb-13 00:30N 51°20' E 004°20'0 0.0
2018-Feb-12 23:59N 51°20' E 004°20'0 0.0
2018-Feb-12 23:26N 51°20' E 004°20'0 0.0
2018-Feb-12 22:59N 51°20' E 004°20'0 0.0
2018-Feb-12 22:29N 51°20' E 004°20'0 0.0
2018-Feb-12 21:59N 51°20' E 004°20'0 0.0
2018-Feb-12 21:29N 51°20' E 004°20'0 0.0
2018-Feb-12 20:59N 51°20' E 004°20'0 0.0
2018-Feb-12 20:29N 51°20' E 004°20'0 0.0
2018-Feb-12 19:56N 51°20' E 004°20'0 0.0
2018-Feb-12 19:26N 51°20' E 004°20'0 0.0
2018-Feb-12 18:59N 51°20' E 004°20'0 0.0
2018-Feb-12 18:29N 51°20' E 004°20'0 0.0
2018-Feb-12 17:59N 51°20' E 004°20'0 0.0
2018-Feb-12 17:29N 51°20' E 004°20'0 0.0
2018-Feb-12 16:56N 51°20' E 004°20'0 0.0
2018-Feb-12 16:29N 51°20' E 004°20'0 0.0
2018-Feb-12 15:59N 51°20' E 004°20'0 0.0
2018-Feb-12 15:17N 51°20' E 004°20'0 0.0
2018-Feb-12 14:59N 51°20' E 004°20'0 0.0
2018-Feb-12 14:26N 51°20' E 004°20'0 0.0
2018-Feb-12 13:59N 51°20' E 004°20'0 0.0
2018-Feb-12 13:26N 51°20' E 004°20'0 0.0
2018-Feb-12 12:56N 51°20' E 004°20'0 0.0
2018-Feb-12 12:29N 51°20' E 004°20'0 0.0
2018-Feb-12 11:59N 51°20' E 004°20'0 0.0
2018-Feb-12 11:29N 51°20' E 004°20'0 0.0
2018-Feb-12 10:59N 51°20' E 004°20'0 0.0
2018-Feb-12 10:29N 51°20' E 004°20'0 0.0
2018-Feb-12 09:59N 51°20' E 004°20'0 0.0
2018-Feb-12 09:29N 51°20' E 004°20'0 0.0
2018-Feb-12 08:59N 51°20' E 004°20'0 0.0
2018-Feb-12 07:59N 51°20' E 004°20'0 0.0
2018-Feb-12 07:29N 51°20' E 004°20'0 0.0
2018-Feb-12 06:56N 51°20' E 004°20'0 0.0
2018-Feb-12 06:29N 51°20' E 004°20'0 0.0
2018-Feb-12 05:56N 51°20' E 004°20'0 0.0
2018-Feb-12 05:29N 51°20' E 004°20'0 0.0
2018-Feb-12 04:59N 51°20' E 004°20'0 0.0
2018-Feb-12 04:29N 51°20' E 004°20'0 0.0
2018-Feb-12 03:59N 51°20' E 004°20'0 0.0
2018-Feb-12 03:29N 51°20' E 004°20'0 0.0
2018-Feb-12 02:59N 51°20' E 004°20'0 0.0
2018-Feb-12 02:29N 51°20' E 004°20'0 0.0
2018-Feb-12 01:56N 51°20' E 004°20'0 0.0
2018-Feb-12 01:23N 51°20' E 004°20'0 0.0
2018-Feb-12 00:59N 51°20' E 004°20'0 0.0
2018-Feb-12 00:29N 51°20' E 004°20'0 0.0
2018-Feb-11 23:56N 51°20' E 004°20'0 0.0
2018-Feb-11 23:29N 51°20' E 004°20'0 0.0
2018-Feb-11 22:59N 51°20' E 004°20'0 0.0
2018-Feb-11 22:29N 51°20' E 004°20'0 0.0
2018-Feb-11 21:56N 51°20' E 004°20'0 0.0
2018-Feb-11 21:29N 51°20' E 004°20'0 0.0
2018-Feb-11 20:59N 51°20' E 004°20'0 0.0
2018-Feb-11 20:29N 51°20' E 004°20'0 0.0
2018-Feb-11 19:59N 51°20' E 004°20'0 0.0
2018-Feb-11 19:26N 51°20' E 004°20'0 0.0
2018-Feb-11 18:56N 51°20' E 004°20'0 0.0
2018-Feb-11 18:26N 51°20' E 004°20'0 0.0
2018-Feb-11 17:59N 51°20' E 004°20'0 0.0
2018-Feb-11 17:29N 51°20' E 004°20'0 0.0
2018-Feb-11 16:53N 51°20' E 004°20'0 0.0
2018-Feb-11 16:29N 51°20' E 004°20'0 0.0
2018-Feb-11 15:59N 51°20' E 004°20'0 0.0
2018-Feb-11 15:26N 51°20' E 004°20'0 0.0
2018-Feb-11 14:59N 51°20' E 004°20'0 0.0
2018-Feb-11 14:29N 51°20' E 004°20'0 0.0
2018-Feb-11 13:59N 51°20' E 004°20'0 0.0
2018-Feb-11 13:29N 51°20' E 004°20'0 0.0
2018-Feb-11 12:58N 51°20' E 004°20'0 0.0
2018-Feb-11 12:28N 51°20' E 004°20'0 0.0
2018-Feb-11 11:58N 51°20' E 004°20'0 0.0
2018-Feb-11 11:28N 51°20' E 004°20'0 0.0
2018-Feb-11 10:58N 51°20' E 004°20'0 0.0
2018-Feb-11 10:25N 51°20' E 004°20'0 0.0
2018-Feb-11 09:58N 51°20' E 004°20'0 0.0
2018-Feb-11 09:28N 51°20' E 004°20'0 0.0
2018-Feb-11 08:58N 51°20' E 004°20'0 0.0
2018-Feb-11 08:19N 51°20' E 004°20'0 0.0
2018-Feb-11 07:58N 51°20' E 004°20'0 0.0
2018-Feb-11 07:28N 51°20' E 004°20'0 0.0
2018-Feb-11 06:49N 51°20' E 004°20'0 0.0
2018-Feb-11 06:28N 51°20' E 004°20'0 0.0
2018-Feb-11 05:52N 51°20' E 004°20'0 0.0
2018-Feb-11 05:28N 51°20' E 004°20'0 0.0
2018-Feb-11 04:58N 51°20' E 004°20'0 0.0
2018-Feb-11 04:25N 51°20' E 004°20'0 0.0
2018-Feb-11 03:58N 51°20' E 004°20'0 0.0
2018-Feb-11 03:19N 51°20' E 004°20'0 0.0
2018-Feb-11 02:49N 51°20' E 004°20'0 0.0
2018-Feb-11 02:19N 51°20' E 004°20'0 0.0
2018-Feb-11 01:52N 51°20' E 004°20'0 0.0
2018-Feb-11 01:25N 51°20' E 004°20'0 0.0
2018-Feb-11 00:58N 51°20' E 004°20'0 0.0
2018-Feb-11 00:28N 51°20' E 004°20'0 0.0
2018-Feb-10 23:52N 51°20' E 004°20'0 0.0
2018-Feb-10 23:28N 51°20' E 004°20'0 0.0
2018-Feb-10 22:52N 51°20' E 004°20'0 0.0
2018-Feb-10 22:28N 51°20' E 004°20'0 0.0
2018-Feb-10 21:40N 51°20' E 004°20'0 0.0
2018-Feb-10 21:28N 51°20' E 004°20'0 0.0
2018-Feb-10 20:58N 51°20' E 004°20'0 0.0
2018-Feb-10 20:28N 51°20' E 004°20'0 0.0
2018-Feb-10 19:58N 51°20' E 004°20'0 0.0
2018-Feb-10 19:28N 51°20' E 004°20'0 0.0
2018-Feb-10 18:55N 51°20' E 004°20'0 0.0
2018-Feb-10 18:28N 51°20' E 004°20'0 0.0
2018-Feb-10 17:55N 51°20' E 004°20'0 0.0
2018-Feb-10 17:28N 51°20' E 004°20'0 0.0
2018-Feb-10 16:58N 51°20' E 004°20'0 0.0
2018-Feb-10 16:28N 51°20' E 004°20'0 0.0
2018-Feb-10 15:58N 51°20' E 004°20'0 0.0
2018-Feb-10 15:25N 51°20' E 004°20'0 0.0
2018-Feb-10 14:52N 51°20' E 004°20'0 0.0
2018-Feb-10 14:22N 51°20' E 004°20'0 0.0
2018-Feb-10 13:55N 51°20' E 004°20'0 0.0
2018-Feb-10 13:28N 51°20' E 004°20'0 0.0
2018-Feb-10 12:58N 51°20' E 004°20'0 0.0
2018-Feb-10 12:28N 51°20' E 004°20'0 0.0
2018-Feb-10 11:55N 51°20' E 004°20'0 0.0
2018-Feb-10 11:28N 51°20' E 004°20'0 0.0
2018-Feb-10 10:58N 51°20' E 004°20'0 0.0
2018-Feb-10 10:28N 51°20' E 004°20'0 0.0
2018-Feb-10 09:58N 51°20' E 004°20'0 0.0
2018-Feb-10 09:28N 51°20' E 004°20'0 0.0
2018-Feb-10 08:58N 51°20' E 004°20'0 0.0
2018-Feb-10 08:28N 51°20' E 004°20'0 0.0
2018-Feb-10 07:58N 51°20' E 004°20'0 0.0
2018-Feb-10 07:28N 51°20' E 004°20'0 0.0
2018-Feb-10 06:58N 51°20' E 004°20'0 0.0
2018-Feb-10 06:19N 51°20' E 004°20'0 0.0
2018-Feb-10 05:58N 51°20' E 004°20'0 0.0
2018-Feb-10 05:28N 51°20' E 004°20'0 0.0
2018-Feb-10 04:58N 51°20' E 004°20'0 0.0
2018-Feb-10 04:31N 51°20' E 004°20'0 0.0
2018-Feb-10 04:01N 51°20' E 004°20'0 0.0
2018-Feb-10 03:18N 51°20' E 004°20'0 0.0
2018-Feb-10 02:57N 51°20' E 004°20'0 0.0
2018-Feb-10 02:30N 51°20' E 004°20'0 0.0
2018-Feb-10 02:00N 51°20' E 004°20'0 0.0
2018-Feb-10 01:27N 51°20' E 004°20'0 0.0
2018-Feb-10 00:57N 51°20' E 004°20'0 0.0
2018-Feb-10 00:27N 51°20' E 004°20'0 0.0
2018-Feb-10 00:00N 51°20' E 004°20'0 0.0
2018-Feb-09 23:27N 51°20' E 004°20'0 0.0
2018-Feb-09 23:00N 51°20' E 004°20'0 0.0
2018-Feb-09 22:45N 51°20' E 004°20'  

Dump ship's entire track history